createdAt,value
2023-02-15T00:01:43.399Z,52.87
2023-02-15T00:04:13.289Z,52.88
2023-02-15T00:06:40.046Z,52.80
2023-02-15T00:09:06.563Z,52.66
2023-02-15T00:11:41.928Z,52.43
2023-02-15T00:14:09.332Z,52.31
2023-02-15T00:16:36.767Z,52.24
2023-02-15T00:19:04.263Z,52.23
2023-02-15T00:21:32.643Z,52.54
2023-02-15T00:24:01.236Z,52.50
2023-02-15T00:26:28.472Z,52.61
2023-02-15T00:28:56.853Z,52.56
2023-02-15T00:31:23.529Z,52.66
2023-02-15T00:33:50.224Z,52.65
2023-02-15T00:36:16.966Z,52.68
2023-02-15T00:38:43.817Z,52.59
2023-02-15T00:41:11.158Z,52.70
2023-02-15T00:43:38.250Z,52.54
2023-02-15T00:46:06.132Z,52.56
2023-02-15T00:48:32.912Z,52.56
2023-02-15T00:51:00.675Z,52.73
2023-02-15T00:53:28.440Z,52.76
2023-02-15T00:55:55.462Z,52.68
2023-02-15T00:58:23.249Z,52.90
2023-02-15T01:00:50.501Z,52.91
2023-02-15T01:03:18.466Z,53.05
2023-02-15T01:05:45.315Z,53.09
2023-02-15T01:08:11.841Z,53.13
2023-02-15T01:10:38.601Z,53.26
2023-02-15T01:13:05.630Z,53.14
2023-02-15T01:15:36.515Z,53.12
2023-02-15T01:18:04.225Z,53.18
2023-02-15T01:20:31.386Z,53.10
2023-02-15T01:22:58.278Z,53.02
2023-02-15T01:25:25.678Z,52.96
2023-02-15T01:27:52.522Z,52.99
2023-02-15T01:30:19.273Z,52.92
2023-02-15T01:32:45.887Z,53.19
2023-02-15T01:35:12.939Z,52.93
2023-02-15T01:37:39.510Z,53.17
2023-02-15T01:40:09.520Z,53.13
2023-02-15T01:42:36.747Z,53.21
2023-02-15T01:45:23.474Z,53.29
2023-02-15T01:47:59.167Z,53.30
2023-02-15T01:50:37.814Z,53.30
2023-02-15T01:53:26.256Z,53.27
2023-02-15T01:56:00.525Z,53.22
2023-02-15T01:58:30.082Z,53.21
2023-02-15T02:01:01.342Z,53.26
2023-02-15T02:03:49.870Z,53.31
2023-02-15T02:06:16.707Z,53.24
2023-02-15T02:08:44.265Z,53.45
2023-02-15T02:11:13.775Z,53.33
2023-02-15T02:13:45.118Z,53.29
2023-02-15T02:16:30.368Z,53.39
2023-02-15T02:19:26.828Z,53.33
2023-02-15T02:22:11.280Z,53.35
2023-02-15T02:24:43.754Z,53.24
2023-02-15T02:27:31.587Z,53.33
2023-02-15T02:30:32.580Z,53.29
2023-02-15T02:33:20.975Z,53.33
2023-02-15T02:35:50.271Z,53.33
2023-02-15T02:38:29.272Z,53.44
2023-02-15T02:41:07.712Z,53.45
2023-02-15T02:43:48.989Z,53.36
2023-02-15T02:46:28.677Z,53.40
2023-02-15T02:48:56.208Z,53.54
2023-02-15T02:51:23.476Z,53.44
2023-02-15T02:53:57.249Z,53.57
2023-02-15T02:56:31.462Z,53.88
2023-02-15T02:59:02.500Z,53.62
2023-02-15T03:01:44.835Z,53.73
2023-02-15T03:04:16.558Z,53.63
2023-02-15T03:06:50.370Z,53.66
2023-02-15T03:09:26.426Z,53.72
2023-02-15T03:11:53.080Z,53.69
2023-02-15T03:14:21.436Z,53.70
2023-02-15T03:16:51.761Z,53.80
2023-02-15T03:19:27.614Z,54.02
2023-02-15T03:22:10.556Z,53.97
2023-02-15T03:24:44.955Z,53.93
2023-02-15T03:27:18.347Z,53.97
2023-02-15T03:29:50.061Z,53.86
2023-02-15T03:32:18.492Z,53.82
2023-02-15T03:34:45.427Z,53.84
2023-02-15T03:37:27.727Z,53.82
2023-02-15T03:39:56.925Z,54.00
2023-02-15T03:42:34.826Z,53.98
2023-02-15T03:45:14.364Z,54.06
2023-02-15T03:47:47.674Z,54.05
2023-02-15T03:50:55.163Z,54.11
2023-02-15T03:53:25.164Z,54.09
2023-02-15T03:55:55.899Z,53.95
2023-02-15T03:58:41.376Z,54.04
2023-02-15T04:01:36.170Z,53.97
2023-02-15T04:04:20.318Z,54.04
2023-02-15T04:06:47.362Z,54.26
2023-02-15T04:09:33.250Z,54.22
2023-02-15T04:11:59.798Z,54.29
2023-02-15T04:14:45.064Z,54.14
2023-02-15T04:17:11.799Z,54.24
2023-02-15T04:19:56.969Z,54.16
2023-02-15T04:22:42.140Z,54.10
2023-02-15T04:25:12.570Z,54.01
2023-02-15T04:27:50.465Z,54.03
2023-02-15T04:30:19.466Z,54.15
2023-02-15T04:32:46.400Z,54.13
2023-02-15T04:35:13.746Z,54.24
2023-02-15T04:37:41.089Z,54.32
2023-02-15T04:40:09.991Z,54.17
2023-02-15T04:42:36.624Z,54.09
2023-02-15T04:45:04.088Z,54.31
2023-02-15T04:47:30.821Z,53.98
2023-02-15T04:49:58.177Z,54.14
2023-02-15T04:52:25.228Z,54.09
2023-02-15T04:54:51.763Z,54.13
2023-02-15T04:57:18.490Z,54.06
2023-02-15T04:59:45.025Z,54.26
2023-02-15T05:02:11.580Z,54.34
2023-02-15T05:04:38.196Z,54.37
2023-02-15T05:07:04.756Z,54.40
2023-02-15T05:09:31.469Z,54.54
2023-02-15T05:11:58.118Z,54.54
2023-02-15T05:14:24.745Z,54.36
2023-02-15T05:16:51.427Z,54.45
2023-02-15T05:19:18.122Z,54.75
2023-02-15T05:21:44.855Z,54.58
2023-02-15T05:24:29.821Z,54.55
2023-02-15T05:27:14.891Z,54.72
2023-02-15T05:29:41.448Z,54.76
2023-02-15T05:32:08.172Z,54.63
2023-02-15T05:34:34.912Z,54.55
2023-02-15T05:37:01.566Z,54.75
2023-02-15T05:39:28.180Z,54.98
2023-02-15T05:41:54.820Z,54.70
2023-02-15T05:44:21.461Z,54.81
2023-02-15T05:46:47.987Z,54.83
2023-02-15T05:49:14.525Z,54.77
2023-02-15T05:51:41.158Z,54.71
2023-02-15T05:54:07.694Z,54.93
2023-02-15T05:56:34.402Z,54.86
2023-02-15T05:59:01.025Z,55.04
2023-02-15T06:01:27.707Z,55.21
2023-02-15T06:03:55.336Z,55.07
2023-02-15T06:06:22.008Z,55.02
2023-02-15T06:08:48.535Z,54.99
2023-02-15T06:11:15.069Z,54.91
2023-02-15T06:13:41.665Z,54.96
2023-02-15T06:16:08.528Z,54.84
2023-02-15T06:18:35.456Z,54.83
2023-02-15T06:21:02.132Z,54.74
2023-02-15T06:23:29.605Z,54.74
2023-02-15T06:25:56.323Z,54.57
2023-02-15T06:28:23.076Z,54.67
2023-02-15T06:30:49.725Z,54.67
2023-02-15T06:33:16.440Z,54.56
2023-02-15T06:35:43.079Z,54.66
2023-02-15T06:38:09.683Z,54.51
2023-02-15T06:40:36.217Z,54.85
2023-02-15T06:43:02.784Z,54.70
2023-02-15T06:45:29.466Z,54.71
2023-02-15T06:47:56.155Z,54.56
2023-02-15T06:50:22.898Z,54.62
2023-02-15T06:52:49.431Z,54.75
2023-02-15T06:55:16.064Z,54.69
2023-02-15T06:57:42.700Z,54.83
2023-02-15T07:00:09.810Z,54.89
2023-02-15T07:02:36.383Z,54.85
2023-02-15T07:05:03.851Z,54.86
2023-02-15T07:07:30.422Z,54.85
2023-02-15T07:09:56.993Z,54.89
2023-02-15T07:12:42.195Z,54.90
2023-02-15T07:15:21.760Z,54.96
2023-02-15T07:17:49.780Z,55.01
2023-02-15T07:20:21.559Z,55.02
2023-02-15T07:22:49.022Z,55.04
2023-02-15T07:25:15.958Z,55.07
2023-02-15T07:27:42.900Z,55.03
2023-02-15T07:30:11.899Z,55.08
2023-02-15T07:32:58.783Z,55.01
2023-02-15T07:35:25.727Z,55.15
2023-02-15T07:37:54.102Z,55.11
2023-02-15T07:40:23.400Z,55.27
2023-02-15T07:42:51.419Z,55.21
2023-02-15T07:45:19.952Z,55.22
2023-02-15T07:47:46.488Z,55.37
2023-02-15T07:50:13.135Z,55.37
2023-02-15T07:52:39.671Z,55.46
2023-02-15T07:55:06.804Z,55.61
2023-02-15T07:57:33.343Z,55.62
2023-02-15T07:59:59.977Z,55.65
2023-02-15T08:02:26.562Z,55.66
2023-02-15T08:04:53.154Z,55.95
2023-02-15T08:07:19.677Z,55.83
2023-02-15T08:09:46.628Z,55.73
2023-02-15T08:12:13.274Z,55.79
2023-02-15T08:14:39.900Z,55.84
2023-02-15T08:17:06.534Z,55.87
2023-02-15T08:19:34.003Z,55.88
2023-02-15T08:22:06.062Z,55.73
2023-02-15T08:24:37.971Z,55.73
2023-02-15T08:27:06.502Z,55.74
2023-02-15T08:29:34.875Z,55.75
2023-02-15T08:32:04.903Z,55.79
2023-02-15T08:34:35.837Z,55.71
2023-02-15T08:37:02.568Z,55.78
2023-02-15T08:39:29.677Z,55.64
2023-02-15T08:41:56.663Z,55.61
2023-02-15T08:44:23.484Z,55.61
2023-02-15T08:46:50.913Z,55.62
2023-02-15T08:49:23.044Z,55.93
2023-02-15T08:51:50.701Z,55.95
2023-02-15T08:54:20.801Z,56.17
2023-02-15T08:56:49.022Z,56.23
2023-02-15T08:59:21.577Z,56.24
2023-02-15T09:01:49.906Z,56.24
2023-02-15T09:04:17.648Z,56.38
2023-02-15T09:06:48.081Z,56.41
2023-02-15T09:09:16.112Z,56.23
2023-02-15T09:11:45.474Z,56.18
2023-02-15T09:14:17.866Z,56.13
2023-02-15T09:16:50.440Z,56.17
2023-02-15T09:19:19.232Z,55.97
2023-02-15T09:21:46.263Z,55.66
2023-02-15T09:24:15.661Z,55.44
2023-02-15T09:26:44.749Z,55.40
2023-02-15T09:29:12.540Z,55.00
2023-02-15T09:31:45.465Z,54.81
2023-02-15T09:34:14.588Z,54.58
2023-02-15T09:36:42.161Z,54.80
2023-02-15T09:39:26.180Z,54.75
2023-02-15T09:41:58.641Z,54.77
2023-02-15T09:44:33.905Z,54.72
2023-02-15T09:47:30.852Z,54.72
2023-02-15T09:50:07.030Z,54.67
2023-02-15T09:52:58.322Z,54.50
2023-02-15T09:55:32.644Z,54.29
2023-02-15T09:58:03.581Z,54.38
2023-02-15T10:00:49.056Z,54.19
2023-02-15T10:03:34.228Z,54.03
2023-02-15T10:06:08.136Z,53.85
2023-02-15T10:08:59.758Z,53.80
2023-02-15T10:11:41.973Z,53.74
2023-02-15T10:14:17.506Z,53.50
2023-02-15T10:16:57.883Z,53.33
2023-02-15T10:19:24.603Z,53.54
2023-02-15T10:22:04.166Z,53.03
2023-02-15T10:24:49.021Z,53.10
2023-02-15T10:27:21.475Z,52.86
2023-02-15T10:30:13.237Z,52.62
2023-02-15T10:33:09.941Z,52.85
2023-02-15T10:35:52.384Z,52.48
2023-02-15T10:38:38.239Z,52.51
2023-02-15T10:41:22.180Z,52.63
2023-02-15T10:44:09.707Z,52.24
2023-02-15T10:46:49.140Z,51.86
2023-02-15T10:49:40.668Z,51.90
2023-02-15T10:52:18.985Z,51.62
2023-02-15T10:55:30.645Z,51.27
2023-02-15T10:58:15.532Z,51.41
2023-02-15T11:00:52.819Z,50.98
2023-02-15T11:03:28.093Z,50.49
2023-02-15T11:06:22.540Z,50.31
2023-02-15T11:08:55.012Z,50.35
2023-02-15T11:11:25.751Z,49.98
2023-02-15T11:13:59.651Z,49.63
2023-02-15T11:16:33.154Z,49.35
2023-02-15T11:19:12.494Z,49.43
2023-02-15T11:21:46.695Z,48.81
2023-02-15T11:24:15.892Z,48.71
2023-02-15T11:26:47.134Z,48.25
2023-02-15T11:29:37.880Z,48.47
2023-02-15T11:32:39.700Z,47.96
2023-02-15T11:35:12.500Z,47.97
2023-02-15T11:37:41.879Z,47.60
2023-02-15T11:40:28.481Z,47.61
2023-02-15T11:42:59.306Z,46.84
2023-02-15T11:45:31.592Z,46.72
2023-02-15T11:48:00.278Z,46.59
2023-02-15T11:50:32.953Z,46.13
2023-02-15T11:53:06.856Z,45.83
2023-02-15T11:55:36.099Z,45.91
2023-02-15T11:58:08.129Z,45.38
2023-02-15T12:00:40.449Z,45.03
2023-02-15T12:03:39.100Z,45.01
2023-02-15T12:06:12.263Z,45.32
2023-02-15T12:08:46.986Z,44.92
2023-02-15T12:11:20.691Z,44.66
2023-02-15T12:13:59.510Z,43.94
2023-02-15T12:16:29.032Z,43.97
2023-02-15T12:18:58.926Z,43.74
2023-02-15T12:21:40.822Z,43.61
2023-02-15T12:24:30.807Z,42.97
2023-02-15T12:27:20.376Z,42.66
2023-02-15T12:29:53.487Z,42.75
2023-02-15T12:32:36.677Z,42.54
2023-02-15T12:35:26.368Z,42.31
2023-02-15T12:38:05.495Z,42.13
2023-02-15T12:40:34.473Z,42.40
2023-02-15T12:43:01.821Z,42.26
2023-02-15T12:45:34.005Z,42.01
2023-02-15T12:48:18.975Z,41.33
2023-02-15T12:50:55.570Z,41.67
2023-02-15T12:53:40.441Z,41.19
2023-02-15T12:56:09.919Z,41.06
2023-02-15T12:58:43.204Z,41.34
2023-02-15T13:01:09.857Z,41.32
2023-02-15T13:03:40.357Z,40.74
2023-02-15T13:06:08.623Z,40.79
2023-02-15T13:08:56.990Z,40.30
2023-02-15T13:11:31.363Z,40.43
2023-02-15T13:14:01.401Z,40.38
2023-02-15T13:16:33.431Z,40.02
2023-02-15T13:19:07.197Z,39.84
2023-02-15T13:21:39.154Z,39.68
2023-02-15T13:24:22.082Z,39.80
2023-02-15T13:26:49.525Z,39.87
2023-02-15T13:29:31.215Z,39.62
2023-02-15T13:32:01.863Z,39.79
2023-02-15T13:34:36.164Z,39.77
2023-02-15T13:37:38.440Z,39.26
2023-02-15T13:40:25.961Z,39.46
2023-02-15T13:43:18.816Z,39.31
2023-02-15T13:46:07.716Z,39.38
2023-02-15T13:48:52.739Z,39.54
2023-02-15T13:51:26.023Z,39.69
2023-02-15T13:54:11.818Z,39.82
2023-02-15T13:56:50.655Z,40.14
2023-02-15T13:59:23.621Z,40.29
2023-02-15T14:02:06.542Z,40.00
2023-02-15T14:04:51.509Z,40.15
2023-02-15T14:07:23.939Z,40.12
2023-02-15T14:10:28.094Z,40.30
2023-02-15T14:13:32.635Z,40.33
2023-02-15T14:16:34.813Z,40.24
2023-02-15T14:19:10.226Z,40.63
2023-02-15T14:21:44.454Z,40.74
2023-02-15T14:24:44.372Z,41.03
2023-02-15T14:27:13.751Z,41.13
2023-02-15T14:29:46.438Z,41.25
2023-02-15T14:32:20.364Z,41.12
2023-02-15T14:34:55.884Z,41.18
2023-02-15T14:37:51.892Z,41.51
2023-02-15T14:40:43.735Z,41.39
2023-02-15T14:43:20.762Z,41.42
2023-02-15T14:46:24.388Z,41.67
2023-02-15T14:48:54.346Z,41.59
2023-02-15T14:51:46.723Z,42.08
2023-02-15T14:54:19.669Z,41.82
2023-02-15T14:56:47.527Z,42.11
2023-02-15T14:59:17.644Z,42.18
2023-02-15T15:01:55.956Z,42.41
2023-02-15T15:04:29.968Z,42.40
2023-02-15T15:07:10.226Z,42.24
2023-02-15T15:09:41.566Z,42.43
2023-02-15T15:12:21.928Z,42.74
2023-02-15T15:14:49.586Z,42.43
2023-02-15T15:17:38.764Z,42.65
2023-02-15T15:20:17.459Z,42.81
2023-02-15T15:22:44.931Z,42.64
2023-02-15T15:25:34.720Z,42.49
2023-02-15T15:28:01.441Z,42.59
2023-02-15T15:30:31.424Z,42.77
2023-02-15T15:32:58.090Z,42.83
2023-02-15T15:35:33.736Z,42.97
2023-02-15T15:38:35.397Z,42.90
2023-02-15T15:41:30.091Z,42.62
2023-02-15T15:44:18.022Z,42.93
2023-02-15T15:47:10.499Z,42.76
2023-02-15T15:49:39.046Z,43.01
2023-02-15T15:52:15.620Z,43.01
2023-02-15T15:54:43.991Z,43.11
2023-02-15T15:57:25.066Z,42.91
2023-02-15T15:59:52.584Z,43.23
2023-02-15T16:02:19.267Z,42.88
2023-02-15T16:04:48.770Z,43.16
2023-02-15T16:07:25.139Z,43.08
2023-02-15T16:10:01.911Z,42.88
2023-02-15T16:12:32.534Z,42.86
2023-02-15T16:15:03.473Z,42.89
2023-02-15T16:17:32.772Z,43.09
2023-02-15T16:20:04.409Z,43.31
2023-02-15T16:22:33.525Z,43.28
2023-02-15T16:25:12.008Z,43.10
2023-02-15T16:27:42.938Z,43.63
2023-02-15T16:30:25.009Z,43.40
2023-02-15T16:33:04.914Z,43.64
2023-02-15T16:35:32.373Z,43.55
2023-02-15T16:37:59.012Z,43.70
2023-02-15T16:40:25.853Z,43.63
2023-02-15T16:43:02.607Z,43.61
2023-02-15T16:45:32.809Z,44.04
2023-02-15T16:48:05.518Z,43.97
2023-02-15T16:50:35.719Z,43.90
2023-02-15T16:53:05.142Z,44.16
2023-02-15T16:55:38.411Z,44.28
2023-02-15T16:58:07.833Z,44.39
2023-02-15T17:00:41.384Z,44.20
2023-02-15T17:03:23.484Z,44.36
2023-02-15T17:05:56.112Z,44.21
2023-02-15T17:08:42.817Z,44.17
2023-02-15T17:11:15.292Z,44.50
2023-02-15T17:14:04.997Z,44.65
2023-02-15T17:16:34.360Z,44.85
2023-02-15T17:19:14.420Z,44.51
2023-02-15T17:21:46.482Z,44.72
2023-02-15T17:24:20.285Z,44.62
2023-02-15T17:26:53.901Z,44.96
2023-02-15T17:29:26.874Z,44.87
2023-02-15T17:31:58.559Z,44.73
2023-02-15T17:34:47.782Z,45.26
2023-02-15T17:37:31.743Z,44.99
2023-02-15T17:40:01.469Z,45.14
2023-02-15T17:42:28.327Z,45.35
2023-02-15T17:44:55.037Z,45.44
2023-02-15T17:47:25.652Z,45.45
2023-02-15T17:49:53.720Z,45.28
2023-02-15T17:52:20.357Z,45.62
2023-02-15T17:55:05.634Z,45.54
2023-02-15T17:57:32.273Z,45.65
2023-02-15T18:00:17.749Z,45.54
2023-02-15T18:03:03.637Z,45.59
2023-02-15T18:05:48.773Z,45.76
2023-02-15T18:08:35.615Z,45.42
2023-02-15T18:11:20.844Z,46.07
2023-02-15T18:13:47.533Z,46.00
2023-02-15T18:16:22.908Z,46.03
2023-02-15T18:18:49.930Z,45.90
2023-02-15T18:21:16.758Z,46.02
2023-02-15T18:23:43.469Z,46.21
2023-02-15T18:26:17.309Z,46.21
2023-02-15T18:28:43.913Z,46.16
2023-02-15T18:31:11.264Z,46.60
2023-02-15T18:33:45.195Z,46.50
2023-02-15T18:36:18.487Z,46.50
2023-02-15T18:38:45.135Z,46.24
2023-02-15T18:41:18.516Z,46.42
2023-02-15T18:43:46.484Z,46.49
2023-02-15T18:46:13.598Z,46.34
2023-02-15T18:48:40.367Z,46.43
2023-02-15T18:51:17.754Z,46.71
2023-02-15T18:53:45.414Z,46.70
2023-02-15T18:56:17.478Z,46.59
2023-02-15T18:58:47.623Z,46.80
2023-02-15T19:01:17.001Z,46.76
2023-02-15T19:03:51.434Z,46.51
2023-02-15T19:06:20.516Z,46.77
2023-02-15T19:08:49.302Z,46.53
2023-02-15T19:11:25.986Z,46.84
2023-02-15T19:13:54.256Z,46.84
2023-02-15T19:16:34.508Z,47.02
2023-02-15T19:19:01.862Z,46.77
2023-02-15T19:21:30.850Z,46.85
2023-02-15T19:24:05.380Z,46.98
2023-02-15T19:26:45.667Z,47.08
2023-02-15T19:29:15.653Z,46.92
2023-02-15T19:31:42.988Z,47.20
2023-02-15T19:34:15.994Z,46.98
2023-02-15T19:36:48.150Z,47.12
2023-02-15T19:39:25.758Z,47.41
2023-02-15T19:41:53.218Z,47.17
2023-02-15T19:44:20.652Z,47.33
2023-02-15T19:46:47.394Z,47.30
2023-02-15T19:49:14.144Z,47.28
2023-02-15T19:51:41.384Z,47.58
2023-02-15T19:54:27.271Z,47.60
2023-02-15T19:56:53.817Z,47.43
2023-02-15T19:59:32.941Z,47.62
2023-02-15T20:01:59.985Z,47.60
2023-02-15T20:04:27.363Z,47.92
2023-02-15T20:06:56.959Z,47.84
2023-02-15T20:09:26.541Z,47.87
2023-02-15T20:11:53.717Z,48.10
2023-02-15T20:14:21.290Z,48.10
2023-02-15T20:16:48.496Z,48.26
2023-02-15T20:19:15.250Z,48.24
2023-02-15T20:21:45.568Z,48.16
2023-02-15T20:24:19.371Z,48.38
2023-02-15T20:26:46.493Z,48.30
2023-02-15T20:29:15.240Z,48.19
2023-02-15T20:31:43.263Z,48.38
2023-02-15T20:34:10.518Z,48.39
2023-02-15T20:36:38.906Z,48.47
2023-02-15T20:39:15.165Z,48.38
2023-02-15T20:41:47.685Z,48.37
2023-02-15T20:44:29.249Z,48.52
2023-02-15T20:46:58.413Z,48.60
2023-02-15T20:49:27.211Z,48.53
2023-02-15T20:51:55.789Z,48.69
2023-02-15T20:54:24.995Z,48.69
2023-02-15T20:56:52.865Z,48.89
2023-02-15T20:59:30.571Z,48.88
2023-02-15T21:02:14.490Z,48.98
2023-02-15T21:04:41.532Z,48.86
2023-02-15T21:07:15.030Z,48.92
2023-02-15T21:09:41.715Z,49.04
2023-02-15T21:12:17.518Z,48.24
2023-02-15T21:14:44.682Z,48.77
2023-02-15T21:17:16.319Z,48.90
2023-02-15T21:19:43.490Z,48.79
2023-02-15T21:22:14.319Z,48.74
2023-02-15T21:24:47.801Z,48.69
2023-02-15T21:27:14.905Z,48.81
2023-02-15T21:29:41.497Z,48.76
2023-02-15T21:32:10.440Z,48.98
2023-02-15T21:34:37.216Z,48.97
2023-02-15T21:37:05.096Z,48.91
2023-02-15T21:39:35.732Z,49.18
2023-02-15T21:42:21.188Z,49.14
2023-02-15T21:45:06.364Z,49.14
2023-02-15T21:47:50.766Z,49.41
2023-02-15T21:50:38.955Z,49.44
2023-02-15T21:53:07.570Z,49.45
2023-02-15T21:55:34.182Z,49.50
2023-02-15T21:58:01.223Z,49.32
2023-02-15T22:00:29.035Z,49.29
2023-02-15T22:02:58.392Z,49.50
2023-02-15T22:05:33.254Z,49.49
2023-02-15T22:08:00.685Z,49.53
2023-02-15T22:10:31.420Z,49.62
2023-02-15T22:13:01.005Z,49.82
2023-02-15T22:15:34.093Z,49.55
2023-02-15T22:18:00.732Z,49.55
2023-02-15T22:20:27.382Z,49.26
2023-02-15T22:22:54.009Z,49.43
2023-02-15T22:25:24.032Z,49.26
2023-02-15T22:27:53.134Z,49.17
2023-02-15T22:30:30.040Z,49.14
2023-02-15T22:32:58.365Z,49.30
2023-02-15T22:35:26.545Z,49.27
2023-02-15T22:37:53.180Z,49.03
2023-02-15T22:40:21.141Z,49.17
2023-02-15T22:42:53.725Z,49.04
2023-02-15T22:45:23.319Z,49.21
2023-02-15T22:47:55.694Z,49.26
2023-02-15T22:50:29.136Z,48.98
2023-02-15T22:52:55.926Z,49.12
2023-02-15T22:55:26.557Z,49.12
2023-02-15T22:57:55.863Z,49.23
2023-02-15T23:00:28.533Z,49.22
2023-02-15T23:02:55.688Z,49.29
2023-02-15T23:05:23.358Z,49.34
2023-02-15T23:07:50.795Z,49.26
2023-02-15T23:10:21.736Z,49.36
2023-02-15T23:13:15.493Z,49.19
2023-02-15T23:15:43.784Z,49.33
2023-02-15T23:18:21.580Z,49.38
2023-02-15T23:20:53.956Z,49.32
2023-02-15T23:23:49.439Z,49.39
2023-02-15T23:26:25.206Z,49.43
2023-02-15T23:28:56.915Z,49.32
2023-02-15T23:31:31.259Z,49.50
2023-02-15T23:33:59.868Z,49.56
2023-02-15T23:36:34.901Z,49.39
2023-02-15T23:39:36.881Z,49.46
2023-02-15T23:42:07.391Z,49.31
2023-02-15T23:44:34.239Z,49.42
2023-02-15T23:47:00.976Z,49.40
2023-02-15T23:49:28.946Z,49.69
2023-02-15T23:51:57.010Z,49.55
2023-02-15T23:54:26.732Z,49.66
2023-02-15T23:56:59.297Z,49.64
2023-02-15T23:59:28.697Z,49.73
